Time;durP1;ratioP1;P1;durP2;ratioP2;P2;SDS_P1;SDS_P2;PMS_P1;PMS_P2;Temp;Humidity;BMP_temperature;BMP_pressure;BME280_temperature;BME280_humidity;BME280_pressure;Samples;Min_cycle;Max_cycle;Signal;HPM_P1;HPM_P2
2023/11/30 00:00:53;;;;;;;4.30;3.53;;;;;;;1.08;100.00;96895.69;5043368;28;20212;-80
2023/11/30 00:03:20;;;;;;;5.43;4.10;;;;;;;1.11;100.00;96898.13;5043303;28;20276;-79
2023/11/30 00:05:47;;;;;;;5.93;4.37;;;;;;;1.07;100.00;96891.41;5040910;28;20209;-80
2023/11/30 00:08:14;;;;;;;6.90;4.43;;;;;;;1.01;100.00;96891.72;5041552;28;20285;-79
2023/11/30 00:10:40;;;;;;;5.07;3.90;;;;;;;1.05;100.00;96888.03;5040985;28;20211;-81
2023/11/30 00:13:07;;;;;;;4.93;4.00;;;;;;;1.09;100.00;96894.75;5041385;28;20219;-81
2023/11/30 00:15:33;;;;;;;7.10;3.80;;;;;;;1.19;100.00;96889.91;5039794;28;20213;-80
2023/11/30 00:18:00;;;;;;;6.10;3.53;;;;;;;1.15;100.00;96889.25;5040390;28;20235;-80
2023/11/30 00:20:26;;;;;;;6.17;4.30;;;;;;;1.13;100.00;96885.88;5040408;28;20208;-80
2023/11/30 00:22:54;;;;;;;5.37;4.03;;;;;;;1.15;100.00;96877.97;5038567;28;20236;-79
2023/11/30 00:25:23;;;;;;;4.90;3.57;;;;;;;1.13;100.00;96880.69;5037590;28;20214;-79
2023/11/30 00:27:49;;;;;;;5.90;4.00;;;;;;;1.04;100.00;96872.53;5038501;28;20265;-80
2023/11/30 00:30:16;;;;;;;5.30;3.87;;;;;;;0.98;100.00;96870.22;5039421;28;20209;-81
2023/11/30 00:32:42;;;;;;;4.53;3.60;;;;;;;0.85;100.00;96875.22;5039968;28;20735;-80
2023/11/30 00:35:09;;;;;;;8.07;4.60;;;;;;;0.78;100.00;96873.84;5038303;28;20219;-79
2023/11/30 00:37:35;;;;;;;5.67;3.77;;;;;;;0.73;100.00;96870.63;5040880;28;20212;-81
2023/11/30 00:40:04;;;;;;;6.60;4.03;;;;;;;0.75;100.00;96873.16;5038588;28;20236;-78
2023/11/30 00:42:31;;;;;;;4.87;3.97;;;;;;;0.65;100.00;96859.78;5039482;28;20242;-81
2023/11/30 00:44:57;;;;;;;5.07;3.97;;;;;;;0.61;100.00;96860.84;5038301;28;20214;-81
2023/11/30 00:47:24;;;;;;;7.73;4.33;;;;;;;0.57;100.00;96859.31;5041846;28;20224;-79
2023/11/30 00:49:53;;;;;;;7.47;3.70;;;;;;;0.53;100.00;96852.59;5041792;28;20204;-78
2023/11/30 00:52:20;;;;;;;5.53;4.17;;;;;;;0.47;100.00;96847.72;5041940;28;20236;-81
2023/11/30 00:54:46;;;;;;;4.77;3.90;;;;;;;0.42;100.00;96854.88;5041415;28;20213;-79
2023/11/30 00:57:14;;;;;;;5.20;3.80;;;;;;;0.36;100.00;96847.41;5041205;28;20212;-81
2023/11/30 00:59:40;;;;;;;5.10;4.30;;;;;;;0.28;100.00;96846.94;5041568;28;20239;-81
2023/11/30 01:02:07;;;;;;;6.50;4.43;;;;;;;0.23;100.00;96842.88;5041535;28;20233;-79
2023/11/30 01:04:33;;;;;;;6.83;4.77;;;;;;;0.17;100.00;96845.78;5040435;28;20209;-79
2023/11/30 01:07:00;;;;;;;6.63;4.30;;;;;;;0.13;100.00;96845.06;5040802;28;20307;-81
2023/11/30 01:09:26;;;;;;;7.27;4.27;;;;;;;0.05;100.00;96843.75;5039445;28;20690;-80
2023/11/30 01:11:53;;;;;;;7.77;4.57;;;;;;;-0.01;100.00;96854.44;5040484;28;20225;-80
2023/11/30 01:14:21;;;;;;;5.90;4.67;;;;;;;-0.07;100.00;96857.34;5037954;28;20214;-81
2023/11/30 01:16:47;;;;;;;6.57;4.97;;;;;;;0.03;100.00;96862.03;5037759;28;20221;-81
2023/11/30 01:19:13;;;;;;;8.30;4.93;;;;;;;0.00;100.00;96856.16;5038776;28;20608;-81
2023/11/30 01:21:40;;;;;;;5.83;4.60;;;;;;;-0.03;100.00;96864.94;5039908;28;20229;-81
2023/11/30 01:24:07;;;;;;;5.50;4.70;;;;;;;-0.08;100.00;96869.50;5038592;28;20208;-79
2023/11/30 01:26:33;;;;;;;6.50;4.80;;;;;;;-0.08;100.00;96867.81;5038903;28;20209;-79
2023/11/30 01:29:00;;;;;;;9.30;4.77;;;;;;;-0.08;100.00;96857.44;5038089;28;20220;-80
2023/11/30 01:31:28;;;;;;;6.90;4.60;;;;;;;-0.14;100.00;96852.53;5036663;28;20233;-80
2023/11/30 01:33:54;;;;;;;9.73;5.23;;;;;;;-0.17;100.00;96857.84;5037287;28;20587;-80
2023/11/30 01:36:21;;;;;;;6.27;4.40;;;;;;;-0.23;100.00;96847.75;5037228;28;20208;-81
2023/11/30 01:38:47;;;;;;;8.50;5.20;;;;;;;-0.30;100.00;96846.38;5039395;28;20251;-79
2023/11/30 01:41:14;;;;;;;9.27;5.37;;;;;;;-0.35;100.00;96853.53;5039035;28;20240;-79
2023/11/30 01:43:41;;;;;;;10.37;5.77;;;;;;;-0.35;100.00;96849.19;5037989;28;20227;-79
2023/11/30 01:46:08;;;;;;;8.13;5.40;;;;;;;-0.41;100.00;96849.47;5038994;28;20211;-79
2023/11/30 01:48:37;;;;;;;8.73;5.83;;;;;;;-0.43;100.00;96853.03;5039424;28;20211;-79
2023/11/30 01:51:07;;;;;;;8.03;5.37;;;;;;;-0.41;100.00;96853.81;5038742;28;20228;-79
2023/11/30 01:53:36;;;;;;;9.57;5.90;;;;;;;-0.44;100.00;96854.78;5040018;28;20289;-79
2023/11/30 01:56:03;;;;;;;9.23;6.13;;;;;;;-0.44;100.00;96849.59;5038706;28;20692;-80
2023/11/30 01:58:30;;;;;;;11.23;6.10;;;;;;;-0.49;100.00;96846.38;5037647;28;20208;-79
2023/11/30 02:00:58;;;;;;;8.90;6.17;;;;;;;-0.51;100.00;96837.81;5038514;28;20212;-80
2023/11/30 02:03:25;;;;;;;10.30;6.87;;;;;;;-0.50;100.00;96838.69;5038370;28;20209;-79
2023/11/30 02:05:53;;;;;;;8.10;6.13;;;;;;;-0.54;100.00;96837.13;5038857;28;20917;-79
2023/11/30 02:08:20;;;;;;;8.87;5.77;;;;;;;-0.59;100.00;96849.47;5039246;28;20208;-80
2023/11/30 02:10:46;;;;;;;11.03;6.50;;;;;;;-0.62;100.00;96850.44;5037820;28;20212;-82
2023/11/30 02:13:13;;;;;;;9.53;6.30;;;;;;;-0.63;100.00;96842.75;5037421;28;20247;-81
2023/11/30 02:15:39;;;;;;;9.40;7.07;;;;;;;-0.62;100.00;96826.28;5038839;28;20204;-79
2023/11/30 02:18:06;;;;;;;9.33;6.70;;;;;;;-0.65;100.00;96818.63;5039178;28;20846;-80
2023/11/30 02:20:32;;;;;;;10.07;6.70;;;;;;;-0.70;100.00;96807.59;5038883;28;20228;-78
2023/11/30 02:23:00;;;;;;;11.87;7.20;;;;;;;-0.75;100.00;96802.63;5039680;28;20319;-81
2023/11/30 02:25:27;;;;;;;9.50;6.50;;;;;;;-0.80;100.00;96796.81;5033402;28;20220;-81
2023/11/30 02:27:53;;;;;;;10.37;6.23;;;;;;;-0.88;100.00;96804.13;5038677;28;20620;-79
2023/11/30 02:30:20;;;;;;;10.23;6.80;;;;;;;-0.95;100.00;96809.63;5038568;28;20219;-79
2023/11/30 02:32:46;;;;;;;10.40;6.23;;;;;;;-0.97;100.00;96798.50;5039342;28;20240;-79
2023/11/30 02:35:13;;;;;;;11.30;6.33;;;;;;;-1.09;100.00;96809.41;5038563;28;20205;-79
2023/11/30 02:37:39;;;;;;;5.93;4.77;;;;;;;-1.17;100.00;96814.13;5040506;28;20219;-79
2023/11/30 02:40:09;;;;;;;8.13;5.30;;;;;;;-1.25;100.00;96808.41;5042924;28;20232;-80
2023/11/30 02:42:35;;;;;;;7.43;5.07;;;;;;;-1.30;100.00;96802.59;5042942;28;20244;-80
2023/11/30 02:45:02;;;;;;;7.40;5.03;;;;;;;-1.36;100.00;96811.47;5042087;28;20216;-80
2023/11/30 02:47:28;;;;;;;8.70;5.50;;;;;;;-1.40;100.00;96802.16;5042193;28;20219;-80
2023/11/30 02:49:54;;;;;;;7.57;5.37;;;;;;;-1.40;100.00;96798.72;5042725;28;20208;-79
2023/11/30 02:52:21;;;;;;;7.17;5.00;;;;;;;-1.37;100.00;96796.84;5043021;28;20228;-79
2023/11/30 02:54:48;;;;;;;6.70;5.07;;;;;;;-1.34;100.00;96795.88;5042440;28;20220;-80
2023/11/30 02:57:16;;;;;;;10.07;5.70;;;;;;;-1.30;100.00;96800.00;5043040;28;20208;-79
2023/11/30 02:59:43;;;;;;;8.17;5.13;;;;;;;-1.27;100.00;96803.31;5042845;28;20243;-79
2023/11/30 03:02:11;;;;;;;8.87;5.70;;;;;;;-1.24;100.00;96797.97;5043205;28;20255;-79
2023/11/30 03:04:37;;;;;;;8.43;5.37;;;;;;;-1.18;100.00;96791.69;5042832;28;20216;-79
2023/11/30 03:07:04;;;;;;;9.57;5.73;;;;;;;-1.14;100.00;96798.41;5043501;28;20219;-81
2023/11/30 03:09:30;;;;;;;8.97;5.73;;;;;;;-1.12;100.00;96802.63;5043374;28;20211;-80
2023/11/30 03:11:57;;;;;;;7.53;5.53;;;;;;;-1.08;100.00;96805.91;5043231;28;20715;-81
2023/11/30 03:14:24;;;;;;;8.23;5.20;;;;;;;-1.04;100.00;96802.28;5040122;28;20307;-80
2023/11/30 03:16:51;;;;;;;8.17;5.37;;;;;;;-1.04;100.00;96791.91;5043961;28;20219;-81
2023/11/30 03:19:17;;;;;;;7.70;5.67;;;;;;;-1.03;100.00;96785.81;5043989;28;20235;-81
2023/11/30 03:21:44;;;;;;;9.20;6.40;;;;;;;-1.00;100.00;96780.50;5043313;28;20665;-81
2023/11/30 03:24:11;;;;;;;8.77;5.73;;;;;;;-0.99;100.00;96777.00;5042998;28;20585;-80
2023/11/30 03:26:38;;;;;;;7.90;5.60;;;;;;;-1.03;100.00;96776.31;5044000;28;20209;-80
2023/11/30 03:29:04;;;;;;;8.10;5.33;;;;;;;-1.04;100.00;96784.13;5043517;28;20324;-81
2023/11/30 03:31:32;;;;;;;8.03;5.63;;;;;;;-1.04;100.00;96773.78;5043572;28;20228;-81
2023/11/30 03:33:58;;;;;;;10.57;6.27;;;;;;;-1.02;100.00;96758.97;5042117;28;20213;-81
2023/11/30 03:36:25;;;;;;;9.13;6.03;;;;;;;-1.01;100.00;96753.72;5043161;28;20224;-81
2023/11/30 03:38:53;;;;;;;9.73;6.03;;;;;;;-0.97;100.00;96749.25;5043801;28;20208;-81
2023/11/30 03:41:20;;;;;;;10.60;6.20;;;;;;;-0.94;100.00;96742.16;5043594;28;20710;-81
2023/11/30 03:43:47;;;;;;;8.33;6.03;;;;;;;-0.92;100.00;96742.09;5042208;28;20500;-78
2023/11/30 03:46:13;;;;;;;11.03;6.67;;;;;;;-0.90;100.00;96735.94;5043085;28;20217;-81
2023/11/30 03:48:41;;;;;;;10.03;6.97;;;;;;;-0.89;100.00;96749.72;5043464;28;20211;-81
2023/11/30 03:51:10;;;;;;;13.10;8.43;;;;;;;-0.81;100.00;96745.03;5043769;28;20231;-80
2023/11/30 03:53:37;;;;;;;13.97;7.77;;;;;;;-0.72;100.00;96750.63;5044743;28;20222;-80
2023/11/30 03:56:05;;;;;;;14.63;8.67;;;;;;;-0.70;100.00;96742.75;5042452;28;20230;-79
2023/11/30 03:58:32;;;;;;;14.70;8.47;;;;;;;-0.70;100.00;96745.34;5041550;28;20647;-79
2023/11/30 04:00:58;;;;;;;12.47;8.00;;;;;;;-0.65;100.00;96735.59;5040944;28;20602;-80
2023/11/30 04:03:25;;;;;;;11.77;8.20;;;;;;;-0.61;100.00;96742.34;5040429;28;20571;-79
2023/11/30 04:05:53;;;;;;;13.87;7.67;;;;;;;-0.55;100.00;96723.88;5040851;28;20255;-79
2023/11/30 04:08:19;;;;;;;14.37;7.77;;;;;;;-0.54;100.00;96717.78;5041325;28;20679;-79
2023/11/30 04:10:46;;;;;;;10.77;7.30;;;;;;;-0.54;100.00;96725.56;5041342;28;20238;-79
2023/11/30 04:13:12;;;;;;;11.27;7.97;;;;;;;-0.55;100.00;96721.28;5041279;28;20205;-79
2023/11/30 04:15:39;;;;;;;10.50;7.93;;;;;;;-0.56;100.00;96710.06;5040979;28;20220;-80
2023/11/30 04:18:05;;;;;;;11.33;7.23;;;;;;;-0.59;100.00;96709.38;5040779;28;20216;-80
2023/11/30 04:20:32;;;;;;;11.20;7.80;;;;;;;-0.58;100.00;96711.03;5041431;28;20228;-80
2023/11/30 04:22:59;;;;;;;13.80;8.23;;;;;;;-0.57;100.00;96712.75;5040973;28;20232;-80
2023/11/30 04:25:26;;;;;;;9.53;6.97;;;;;;;-0.57;100.00;96698.00;5040523;28;20208;-80
2023/11/30 04:27:52;;;;;;;10.33;6.67;;;;;;;-0.54;100.00;96691.84;5040782;28;20209;-79
2023/11/30 04:30:19;;;;;;;9.40;6.77;;;;;;;-0.54;100.00;96691.84;5041489;28;20204;-79
2023/11/30 04:32:45;;;;;;;9.43;6.80;;;;;;;-0.53;100.00;96688.31;5040913;28;20633;-79
2023/11/30 04:35:12;;;;;;;12.40;6.93;;;;;;;-0.55;100.00;96692.75;5040878;28;20588;-79
2023/11/30 04:37:38;;;;;;;7.63;6.23;;;;;;;-0.54;100.00;96689.25;5040696;28;20211;-79
2023/11/30 04:40:07;;;;;;;9.23;6.47;;;;;;;-0.54;100.00;96689.25;5040601;28;20237;-79
2023/11/30 04:42:34;;;;;;;9.07;6.33;;;;;;;-0.54;100.00;96694.44;5040574;28;20247;-82
2023/11/30 04:45:00;;;;;;;9.93;6.80;;;;;;;-0.56;100.00;96688.50;5040094;28;20215;-79
2023/11/30 04:47:27;;;;;;;8.63;6.30;;;;;;;-0.60;100.00;96687.78;5039527;28;20222;-81
2023/11/30 04:49:53;;;;;;;10.53;6.17;;;;;;;-0.65;100.00;96683.72;5041147;28;20209;-79
2023/11/30 04:52:20;;;;;;;9.03;6.47;;;;;;;-0.76;100.00;96686.00;5040615;28;20596;-80
2023/11/30 04:54:46;;;;;;;10.00;6.57;;;;;;;-0.82;100.00;96686.28;5040472;28;20209;-79
2023/11/30 04:57:14;;;;;;;7.93;5.77;;;;;;;-0.91;100.00;96686.72;5040905;28;20215;-80
2023/11/30 04:59:41;;;;;;;6.33;5.37;;;;;;;-1.00;100.00;96682.00;5038113;28;20208;-79
2023/11/30 05:02:08;;;;;;;9.93;5.90;;;;;;;-1.06;100.00;96682.28;5039676;28;20232;-79
2023/11/30 05:04:35;;;;;;;8.77;5.30;;;;;;;-1.09;100.00;96679.81;5038839;28;20212;-79
2023/11/30 05:07:01;;;;;;;9.00;6.23;;;;;;;-1.16;100.00;96675.81;5039516;28;20208;-79
2023/11/30 05:09:28;;;;;;;9.80;5.90;;;;;;;-1.24;100.00;96673.59;5038564;28;20216;-79
2023/11/30 05:11:55;;;;;;;7.67;5.97;;;;;;;-1.28;100.00;96672.06;5038624;28;20243;-79
2023/11/30 05:14:22;;;;;;;8.37;5.13;;;;;;;-1.32;100.00;96675.69;5038753;28;20208;-80
2023/11/30 05:16:49;;;;;;;10.63;6.10;;;;;;;-1.31;100.00;96679.09;5039260;28;20218;-79
2023/11/30 05:19:15;;;;;;;8.60;5.57;;;;;;;-1.29;100.00;96679.91;5040437;28;20224;-79
2023/11/30 05:21:42;;;;;;;8.93;5.97;;;;;;;-1.22;100.00;96683.88;5039701;28;20241;-79
2023/11/30 05:24:08;;;;;;;9.13;6.73;;;;;;;-1.18;100.00;96672.47;5038764;28;20213;-80
2023/11/30 05:26:35;;;;;;;9.30;6.17;;;;;;;-1.17;100.00;96671.56;5039017;28;20227;-80
2023/11/30 05:29:02;;;;;;;8.93;6.10;;;;;;;-1.14;100.00;96669.66;5039170;28;20268;-80
2023/11/30 05:31:30;;;;;;;10.37;6.77;;;;;;;-1.05;100.00;96668.41;5039329;28;20228;-79
2023/11/30 05:33:57;;;;;;;9.23;6.93;;;;;;;-0.99;100.00;96665.53;5038813;28;20670;-79
2023/11/30 05:36:23;;;;;;;8.43;5.97;;;;;;;-0.96;100.00;96670.53;5039770;28;20219;-79
2023/11/30 05:38:50;;;;;;;11.63;7.43;;;;;;;-0.92;100.00;96677.28;5038904;28;20205;-79
2023/11/30 05:41:17;;;;;;;11.10;6.60;;;;;;;-0.93;100.00;96684.19;5038884;28;20234;-79
2023/11/30 05:43:45;;;;;;;8.47;6.23;;;;;;;-0.91;100.00;96679.81;5037395;28;20224;-78
2023/11/30 05:46:11;;;;;;;8.07;6.20;;;;;;;-0.92;100.00;96682.47;5036385;28;20209;-78
2023/11/30 05:48:39;;;;;;;9.43;6.20;;;;;;;-0.90;100.00;96689.25;5036098;28;20216;-79
2023/11/30 05:51:06;;;;;;;10.87;6.40;;;;;;;-0.91;100.00;96689.31;5036494;28;20232;-79
2023/11/30 05:53:33;;;;;;;9.27;6.03;;;;;;;-0.93;100.00;96678.19;5037289;28;20706;-79
2023/11/30 05:55:59;;;;;;;10.43;6.30;;;;;;;-0.92;100.00;96677.28;5037866;28;20319;-78
2023/11/30 05:58:26;;;;;;;11.23;6.60;;;;;;;-0.93;100.00;96670.41;5043942;28;20211;-79
2023/11/30 06:00:52;;;;;;;10.40;6.17;;;;;;;-0.92;100.00;96669.50;5042902;28;20232;-79
2023/11/30 06:03:19;;;;;;;10.17;6.30;;;;;;;-0.88;100.00;96663.22;5041977;28;20223;-79
2023/11/30 06:05:47;;;;;;;8.57;5.67;;;;;;;-0.86;100.00;96666.63;5042502;28;20212;-79
2023/11/30 06:08:14;;;;;;;12.03;6.10;;;;;;;-0.83;100.00;96653.47;5042168;28;20223;-79
2023/11/30 06:10:40;;;;;;;7.70;5.57;;;;;;;-0.83;100.00;96664.72;5041716;28;20224;-81
2023/11/30 06:13:07;;;;;;;8.30;5.33;;;;;;;-0.84;100.00;96655.25;5041444;28;20212;-81
2023/11/30 06:15:34;;;;;;;9.03;5.77;;;;;;;-0.87;100.00;96642.41;5041475;28;20266;-79
2023/11/30 06:18:00;;;;;;;9.70;5.70;;;;;;;-0.87;100.00;96651.97;5041449;28;20211;-81
2023/11/30 06:20:27;;;;;;;7.93;5.93;;;;;;;-0.87;100.00;96651.97;5041234;28;20687;-80
2023/11/30 06:22:54;;;;;;;8.87;5.80;;;;;;;-0.89;100.00;96648.59;5041037;28;20710;-81
2023/11/30 06:25:21;;;;;;;9.30;6.10;;;;;;;-0.93;100.00;96647.91;5041113;28;20212;-78
2023/11/30 06:27:47;;;;;;;8.73;5.97;;;;;;;-0.94;100.00;96637.59;5041515;28;20208;-80
2023/11/30 06:30:14;;;;;;;9.37;6.10;;;;;;;-0.90;100.00;96632.22;5040776;28;20558;-79
2023/11/30 06:32:41;;;;;;;8.53;5.57;;;;;;;-0.87;100.00;96633.81;5041697;28;20236;-79
2023/11/30 06:35:08;;;;;;;8.97;5.50;;;;;;;-0.93;100.00;96636.72;5041531;28;20511;-79
2023/11/30 06:37:35;;;;;;;9.40;5.33;;;;;;;-0.87;100.00;96636.41;5042284;28;20698;-79
2023/11/30 06:40:02;;;;;;;7.47;5.27;;;;;;;-0.94;100.00;96637.59;5039319;28;20209;-78
2023/11/30 06:42:29;;;;;;;7.67;5.13;;;;;;;-0.99;100.00;96631.81;5041561;28;20240;-79
2023/11/30 06:44:56;;;;;;;7.83;5.47;;;;;;;-0.97;100.00;96624.78;5041082;28;20208;-78
2023/11/30 06:47:22;;;;;;;7.87;4.73;;;;;;;-1.01;100.00;96613.72;5041027;28;20212;-80
2023/11/30 06:49:50;;;;;;;9.60;5.70;;;;;;;-1.04;100.00;96615.63;5040672;28;20213;-80
2023/11/30 06:52:16;;;;;;;7.20;4.87;;;;;;;-1.04;100.00;96607.84;5041046;28;20320;-80
2023/11/30 06:54:43;;;;;;;6.33;4.83;;;;;;;-1.03;100.00;96620.75;5041313;28;20600;-78
2023/11/30 06:57:11;;;;;;;7.23;4.23;;;;;;;-1.10;100.00;96613.34;5042282;28;20304;-79
2023/11/30 06:59:37;;;;;;;5.77;4.50;;;;;;;-1.13;100.00;96614.31;5041636;28;20219;-81
2023/11/30 07:02:04;;;;;;;7.07;4.23;;;;;;;-1.10;100.00;96623.69;5042710;28;20339;-79
2023/11/30 07:04:30;;;;;;;6.80;4.43;;;;;;;-1.08;100.00;96627.06;5039984;28;20212;-77
2023/11/30 07:06:57;;;;;;;6.33;4.53;;;;;;;-1.01;100.00;96628.44;5034068;28;20211;-78
2023/11/30 07:09:23;;;;;;;6.47;4.97;;;;;;;-0.99;100.00;96631.81;5037824;28;20212;-78
2023/11/30 07:11:50;;;;;;;7.80;5.17;;;;;;;-0.94;100.00;96622.03;5034840;28;20249;-79
2023/11/30 07:14:18;;;;;;;6.87;4.70;;;;;;;-0.88;100.00;96625.19;5034543;28;20219;-79
2023/11/30 07:16:44;;;;;;;7.53;4.77;;;;;;;-0.84;100.00;96615.50;5034909;28;20650;-78
2023/11/30 07:19:13;;;;;;;7.80;4.70;;;;;;;-0.84;100.00;96610.31;5035907;28;20216;-77
2023/11/30 07:21:39;;;;;;;6.27;4.47;;;;;;;-0.87;100.00;96605.31;5036892;28;20606;-80
2023/11/30 07:24:06;;;;;;;7.13;4.33;;;;;;;-0.88;100.00;96603.59;5036077;28;20205;-78
2023/11/30 07:26:33;;;;;;;5.93;4.47;;;;;;;-0.87;100.00;96605.31;5037639;28;20601;-79
2023/11/30 07:28:59;;;;;;;6.13;4.43;;;;;;;-0.84;100.00;96610.31;5038287;28;20215;-78
2023/11/30 07:31:27;;;;;;;6.37;4.77;;;;;;;-0.86;100.00;96617.34;5038652;28;20229;-79
2023/11/30 07:33:53;;;;;;;6.67;4.30;;;;;;;-0.83;100.00;96622.38;5037939;28;20683;-80
2023/11/30 07:36:20;;;;;;;6.20;4.43;;;;;;;-0.77;100.00;96628.09;5038334;28;20211;-80
2023/11/30 07:38:48;;;;;;;7.53;4.47;;;;;;;-0.72;100.00;96617.50;5037539;28;20221;-79
2023/11/30 07:41:16;;;;;;;6.27;4.77;;;;;;;-0.67;100.00;96618.97;5038303;28;20653;-78
2023/11/30 07:43:44;;;;;;;7.27;4.33;;;;;;;-0.61;100.00;96623.00;5037297;28;20260;-79
2023/11/30 07:46:11;;;;;;;8.10;4.93;;;;;;;-0.57;100.00;96627.16;5038225;28;20296;-79
2023/11/30 07:48:39;;;;;;;6.80;4.37;;;;;;;-0.52;100.00;96622.53;5037692;28;20212;-79
2023/11/30 07:51:06;;;;;;;6.27;4.47;;;;;;;-0.44;100.00;96625.63;5037566;28;20231;-79
2023/11/30 07:53:33;;;;;;;7.87;5.13;;;;;;;-0.37;100.00;96624.38;5036982;28;20209;-79
2023/11/30 07:56:00;;;;;;;7.40;4.70;;;;;;;-0.32;100.00;96615.44;5036719;28;20220;-79
2023/11/30 07:58:26;;;;;;;6.03;4.23;;;;;;;-0.24;100.00;96620.25;5036993;28;20209;-79
2023/11/30 08:00:53;;;;;;;8.80;5.07;;;;;;;-0.18;100.00;96614.75;5036598;28;20235;-79
2023/11/30 08:03:20;;;;;;;6.60;4.67;;;;;;;-0.11;100.00;96610.00;5036557;28;20217;-79
2023/11/30 08:05:47;;;;;;;7.53;4.80;;;;;;;-0.04;100.00;96608.75;5036504;28;20655;-79
2023/11/30 08:08:14;;;;;;;5.73;4.47;;;;;;;0.03;100.00;96598.91;5036814;28;20208;-79
2023/11/30 08:10:40;;;;;;;7.00;4.87;;;;;;;0.09;100.00;96594.25;5036078;28;20215;-79
2023/11/30 08:13:07;;;;;;;5.97;4.07;;;;;;;0.15;100.00;96590.47;5036131;28;20209;-79
2023/11/30 08:15:33;;;;;;;6.70;4.67;;;;;;;0.21;100.00;96596.19;5036778;28;20648;-79
2023/11/30 08:18:00;;;;;;;6.90;4.50;;;;;;;0.21;100.00;96601.38;5037502;28;20578;-81
2023/11/30 08:20:27;;;;;;;5.93;4.40;;;;;;;0.22;100.00;96605.66;5037054;28;20305;-79
2023/11/30 08:22:55;;;;;;;5.33;4.10;;;;;;;0.27;100.00;96611.44;5036013;28;20228;-79
2023/11/30 08:25:21;;;;;;;6.77;4.40;;;;;;;0.25;100.00;96602.06;5036284;28;20213;-80
2023/11/30 08:27:50;;;;;;;6.43;4.67;;;;;;;0.33;100.00;96598.09;5036469;28;20204;-80
2023/11/30 08:30:17;;;;;;;7.43;5.00;;;;;;;0.33;100.00;96602.47;5036318;28;20267;-79
2023/11/30 08:32:44;;;;;;;9.53;5.70;;;;;;;0.33;100.00;96595.50;5035911;28;20600;-78
2023/11/30 08:35:10;;;;;;;7.90;5.17;;;;;;;0.35;100.00;96593.69;5035964;28;20282;-79
2023/11/30 08:37:38;;;;;;;9.47;5.47;;;;;;;0.36;100.00;96581.53;5036715;28;20212;-78
2023/11/30 08:40:10;;;;;;;10.47;5.80;;;;;;;0.33;100.00;96573.91;5036065;28;20239;-79
2023/11/30 08:42:37;;;;;;;7.60;5.10;;;;;;;0.33;100.00;96574.72;5034459;28;20729;-79
2023/11/30 08:45:04;;;;;;;7.40;5.17;;;;;;;0.33;100.00;96584.28;5033109;28;20204;-78
2023/11/30 08:47:31;;;;;;;7.70;5.13;;;;;;;0.35;100.00;96580.69;5033315;28;20224;-78
2023/11/30 08:49:57;;;;;;;9.67;6.37;;;;;;;0.34;100.00;96580.78;5034868;28;20614;-79
2023/11/30 08:52:24;;;;;;;8.50;5.47;;;;;;;0.41;100.00;96582.13;5034490;28;20236;-79
2023/11/30 08:54:51;;;;;;;8.23;5.80;;;;;;;0.39;100.00;96589.16;5033810;28;20212;-79
2023/11/30 08:57:19;;;;;;;7.60;5.53;;;;;;;0.38;100.00;96582.28;5034882;28;20213;-78
2023/11/30 08:59:46;;;;;;;9.63;6.13;;;;;;;0.39;100.00;96579.59;5034165;28;20220;-79
2023/11/30 09:02:12;;;;;;;9.03;6.17;;;;;;;0.41;100.00;96582.97;5033689;28;20229;-79
2023/11/30 09:04:39;;;;;;;11.83;6.20;;;;;;;0.42;100.00;96574.25;5032769;28;20312;-79
2023/11/30 09:07:05;;;;;;;7.63;5.53;;;;;;;0.47;100.00;96581.78;5034349;28;20239;-79
2023/11/30 09:09:33;;;;;;;8.43;5.73;;;;;;;0.47;100.00;96572.25;5034598;28;20209;-79
2023/11/30 09:11:59;;;;;;;8.23;5.07;;;;;;;0.51;100.00;96573.72;5035231;28;20232;-79
2023/11/30 09:14:27;;;;;;;7.87;5.60;;;;;;;0.58;100.00;96569.03;5033610;28;20592;-79
2023/11/30 09:16:54;;;;;;;8.80;5.97;;;;;;;0.58;100.00;96569.91;5034277;28;20208;-79
2023/11/30 09:19:20;;;;;;;8.50;5.73;;;;;;;0.61;100.00;96568.91;5034897;28;20208;-79
2023/11/30 09:21:47;;;;;;;8.17;5.30;;;;;;;0.61;100.00;96574.09;5033511;28;20644;-79
2023/11/30 09:24:15;;;;;;;7.13;5.30;;;;;;;0.65;100.00;96566.03;5033772;28;20219;-79
2023/11/30 09:26:43;;;;;;;6.67;5.10;;;;;;;0.71;100.00;96575.25;5034339;28;20209;-79
2023/11/30 09:29:09;;;;;;;8.00;5.50;;;;;;;0.70;100.00;96590.03;5034084;28;20254;-79
2023/11/30 09:31:41;;;;;;;8.00;5.00;;;;;;;0.73;100.00;96587.25;5033850;28;20569;-79
2023/11/30 09:34:08;;;;;;;7.87;5.13;;;;;;;0.71;100.00;96576.09;5031965;28;20557;-79
2023/11/30 09:36:34;;;;;;;8.23;5.27;;;;;;;0.81;100.00;96572.03;5031843;28;20532;-79
2023/11/30 09:39:03;;;;;;;7.67;5.20;;;;;;;0.90;100.00;96576.75;5033199;28;20220;-79
2023/11/30 09:41:29;;;;;;;6.87;5.03;;;;;;;0.97;100.00;96572.88;5033086;28;20346;-79
2023/11/30 09:43:56;;;;;;;8.43;5.80;;;;;;;1.05;100.00;96570.66;5031148;28;20228;-79
2023/11/30 09:46:22;;;;;;;7.47;5.40;;;;;;;1.13;100.00;96568.50;5033002;28;20555;-79
2023/11/30 09:48:50;;;;;;;7.60;5.20;;;;;;;1.15;100.00;96568.38;5036148;28;20205;-78
2023/11/30 09:51:21;;;;;;;9.43;6.23;;;;;;;1.14;100.00;96570.16;5038495;28;20224;-79
2023/11/30 09:53:47;;;;;;;7.83;5.67;;;;;;;1.19;100.00;96564.69;5038737;28;20208;-79
2023/11/30 09:56:14;;;;;;;7.23;5.13;;;;;;;1.15;100.00;96561.44;5038879;28;20281;-79
2023/11/30 09:58:42;;;;;;;8.03;5.23;;;;;;;1.14;100.00;96554.56;5037643;28;20214;-79
2023/11/30 10:01:08;;;;;;;7.07;4.90;;;;;;;1.17;100.00;96556.97;5037883;28;20323;-79
2023/11/30 10:03:37;;;;;;;8.83;5.20;;;;;;;1.20;100.00;96556.81;5037369;28;20219;-78
2023/11/30 10:06:06;;;;;;;8.73;5.43;;;;;;;1.18;100.00;96548.22;5038676;28;20786;-80
2023/11/30 10:08:32;;;;;;;8.77;5.13;;;;;;;1.22;100.00;96554.94;5050284;28;20212;-78
2023/11/30 10:10:59;;;;;;;7.50;5.73;;;;;;;1.25;100.00;96546.97;5043410;28;20236;-78
2023/11/30 10:13:26;;;;;;;8.00;5.70;;;;;;;1.30;100.00;96539.72;5048431;28;20295;-79
2023/11/30 10:15:52;;;;;;;8.43;5.73;;;;;;;1.36;100.00;96523.75;5050179;28;20682;-78
2023/11/30 10:18:19;;;;;;;6.87;5.30;;;;;;;1.43;100.00;96514.69;5050601;28;20212;-79
2023/11/30 10:20:46;;;;;;;7.23;4.77;;;;;;;1.57;100.00;96532.06;5049916;28;20216;-78
2023/11/30 10:23:14;;;;;;;8.97;5.80;;;;;;;1.64;100.00;96526.41;5037302;28;20232;-78
2023/11/30 10:25:42;;;;;;;9.10;5.97;;;;;;;1.73;100.00;96517.22;5035550;28;20213;-78
2023/11/30 10:28:12;;;;;;;9.37;6.20;;;;;;;1.86;100.00;96498.16;5036685;28;20212;-78
2023/11/30 10:30:41;;;;;;;7.17;5.60;;;;;;;1.98;100.00;96494.81;5036267;28;20216;-78
2023/11/30 10:33:12;;;;;;;9.73;6.43;;;;;;;2.07;100.00;96499.44;5035493;28;20204;-79
2023/11/30 10:35:43;;;;;;;11.18;8.23;;;;;;;2.18;100.00;96504.84;5034450;28;20440;-78
2023/11/30 10:38:15;;;;;;;9.53;6.87;;;;;;;2.23;100.00;96514.97;5035953;28;20227;-78
2023/11/30 10:40:43;;;;;;;10.90;6.80;;;;;;;2.24;100.00;96509.66;5036009;28;20618;-78
2023/11/30 10:43:11;;;;;;;9.80;6.63;;;;;;;2.29;100.00;96502.41;5035602;28;20224;-79
2023/11/30 10:45:40;;;;;;;11.07;7.17;;;;;;;2.31;100.00;96500.53;5035350;28;20212;-78
2023/11/30 10:48:11;;;;;;;12.27;6.97;;;;;;;2.38;100.00;96499.22;5034983;28;20208;-78
2023/11/30 10:50:40;;;;;;;10.77;7.03;;;;;;;2.36;100.00;96482.84;5034966;28;20695;-79
2023/11/30 10:53:12;;;;;;;10.23;8.07;;;;;;;2.43;100.00;96472.84;5033305;28;20987;-79
2023/11/30 10:55:39;;;;;;;10.13;7.10;;;;;;;2.50;100.00;96485.41;5031934;28;20213;-79
2023/11/30 10:58:08;;;;;;;10.10;6.93;;;;;;;2.63;100.00;96475.84;5034814;28;20248;-78
2023/11/30 11:00:35;;;;;;;10.20;6.30;;;;;;;2.79;100.00;96473.94;5035623;28;20267;-79
2023/11/30 11:03:08;;;;;;;10.40;7.40;;;;;;;2.97;100.00;96480.56;5033161;28;20480;-80
2023/11/30 11:05:35;;;;;;;10.93;7.50;;;;;;;3.12;100.00;96476.94;5035758;28;20214;-79
2023/11/30 11:08:02;;;;;;;9.73;7.17;;;;;;;3.26;100.00;96474.28;5037350;28;20216;-79
2023/11/30 11:10:31;;;;;;;10.97;6.13;;;;;;;3.34;100.00;96466.75;5036924;28;20236;-80
2023/11/30 11:12:59;;;;;;;9.93;6.97;;;;;;;3.41;100.00;96460.19;5035943;28;20314;-79
2023/11/30 11:15:28;;;;;;;9.43;6.37;;;;;;;3.47;100.00;96465.00;5036366;28;20577;-80
2023/11/30 11:18:00;;;;;;;10.63;6.27;;;;;;;3.58;100.00;96467.72;5038181;28;20288;-80
2023/11/30 11:20:28;;;;;;;9.07;6.93;;;;;;;3.68;100.00;96465.31;5037792;28;20213;-80
2023/11/30 11:22:55;;;;;;;10.43;6.77;;;;;;;3.72;100.00;96470.22;5037419;28;20240;-81
2023/11/30 11:25:22;;;;;;;11.10;7.47;;;;;;;3.81;100.00;96468.75;5038487;28;20259;-80